Time;durP1;ratioP1;P1;durP2;ratioP2;P2;SDS_P1;SDS_P2;PMS_P1;PMS_P2;Temp;Humidity;BMP_temperature;BMP_pressure;BME280_temperature;BME280_humidity;BME280_pressure;Samples;Min_cycle;Max_cycle;Signal;HPM_P1;HPM_P2
2021/12/13 00:00:14;;;;;;;;;;;;;;;9.76;100.00;102619.66;10543463;28;20048;-60
2021/12/13 00:05:30;;;;;;;55.15;31.75;;;;;;;9.74;100.00;102621.47;10543451;28;19927;-61
2021/12/13 00:10:41;;;;;;;50.03;32.33;;;;;;;9.58;100.00;102602.66;10543092;28;20064;-60
2021/12/13 00:15:52;;;;;;;60.65;34.35;;;;;;;9.71;100.00;102598.00;10543224;28;20131;-60
2021/12/13 00:21:07;;;;;;;50.50;33.65;;;;;;;9.88;100.00;102615.88;10542217;28;20488;-61
2021/12/13 00:26:10;;;;;;;79.88;39.10;;;;;;;9.57;100.00;102608.81;10542690;28;20078;-60
2021/12/13 00:31:24;;;;;;;56.28;35.70;;;;;;;9.75;100.00;102603.13;10542463;28;20052;-60
2021/12/13 00:36:48;;;;;;;73.53;40.03;;;;;;;9.72;100.00;102615.44;10542117;28;20046;-61
2021/12/13 00:41:51;;;;;;;75.50;41.28;;;;;;;9.69;100.00;102633.81;10540655;28;20070;-60
2021/12/13 00:46:55;;;;;;;64.25;39.70;;;;;;;9.76;100.00;102630.13;10541808;28;20048;-61
2021/12/13 00:51:58;;;;;;;58.92;36.63;;;;;;;9.78;100.00;102628.34;10540434;28;20488;-61
2021/12/13 00:57:01;;;;;;;68.30;42.50;;;;;;;9.71;100.00;102634.63;10541425;28;20044;-61
2021/12/13 01:02:15;;;;;;;59.67;37.75;;;;;;;9.65;100.00;102644.34;10540689;28;20051;-60
2021/12/13 01:07:33;;;;;;;56.97;36.80;;;;;;;9.81;100.00;102636.13;10541015;28;20048;-60
2021/12/13 01:12:37;;;;;;;61.17;39.28;;;;;;;9.69;100.00;102652.13;10540532;28;20055;-60
2021/12/13 01:22:55;;;;;;;;;;;;;;;9.60;100.00;102659.28;10540653;28;20404;-60
2021/12/13 01:28:08;;;;;;;79.15;43.70;;;;;;;9.58;100.00;102682.00;10540021;28;19920;-60
2021/12/13 01:33:12;;;;;;;88.07;45.58;;;;;;;9.68;100.00;102661.69;10540116;28;20055;-57
2021/12/13 01:38:30;;;;;;;89.45;46.15;;;;;;;9.61;100.00;102673.22;10540343;28;20052;-58
2021/12/13 01:43:33;;;;;;;62.20;39.22;;;;;;;9.69;100.00;102670.44;10539575;28;20415;-57
2021/12/13 01:48:41;;;;;;;73.88;43.50;;;;;;;9.61;100.00;102667.97;10539901;28;20059;-60
2021/12/13 01:53:57;;;;;;;59.25;38.67;;;;;;;9.61;100.00;102675.81;10538149;28;20411;-58
2021/12/13 01:59:05;;;;;;;66.15;39.15;;;;;;;9.48;100.00;102670.88;10539920;28;20052;-58
2021/12/13 02:04:10;;;;;;;48.13;33.45;;;;;;;9.70;100.00;102672.13;10542835;28;20059;-61
2021/12/13 02:09:20;;;;;;;68.97;40.45;;;;;;;9.52;100.00;102679.50;10548068;28;20055;-60
2021/12/13 02:14:28;;;;;;;67.53;37.53;;;;;;;9.35;100.00;102677.28;10546317;28;20491;-58
2021/12/13 02:19:36;;;;;;;56.60;34.95;;;;;;;9.35;100.00;102674.66;10547309;28;20302;-59
2021/12/13 02:24:39;;;;;;;65.40;37.20;;;;;;;9.23;100.00;102670.56;10547305;28;20052;-58
2021/12/13 02:29:42;;;;;;;42.28;31.25;;;;;;;9.36;100.00;102663.31;10545711;28;20412;-59
2021/12/13 02:34:44;;;;;;;55.80;32.22;;;;;;;9.24;100.00;102674.03;10546574;28;20048;-57
2021/12/13 02:39:49;;;;;;;47.03;27.92;;;;;;;9.27;100.00;102658.28;10546605;28;20055;-59
2021/12/13 02:44:58;;;;;;;64.30;33.83;;;;;;;9.27;100.00;102666.97;10546970;28;20396;-58
2021/12/13 02:50:01;;;;;;;50.20;31.85;;;;;;;9.27;100.00;102677.44;10546104;28;20496;-58
2021/12/13 02:55:10;;;;;;;45.20;27.65;;;;;;;9.32;100.00;102686.94;10545611;28;20044;-58
2021/12/13 03:00:23;;;;;;;47.38;28.60;;;;;;;9.27;100.00;102690.50;10545584;28;20417;-58
2021/12/13 03:05:36;;;;;;;60.40;32.83;;;;;;;9.29;100.00;102672.19;10546231;28;20044;-57
2021/12/13 03:10:44;;;;;;;55.72;33.63;;;;;;;9.15;100.00;102662.03;10545626;28;20052;-59
2021/12/13 03:16:01;;;;;;;50.00;30.33;;;;;;;9.14;100.00;102662.91;10544350;28;20376;-58
2021/12/13 03:21:15;;;;;;;56.35;33.47;;;;;;;9.26;100.00;102673.13;10543685;28;20127;-58
2021/12/13 03:26:54;;;;;;;54.05;32.22;;;;;;;9.06;100.00;102667.44;10544506;28;20396;-58
2021/12/13 03:31:58;;;;;;;67.15;34.65;;;;;;;9.14;100.00;102664.69;10543269;28;20056;-58
2021/12/13 03:37:08;;;;;;;54.95;33.17;;;;;;;9.09;100.00;102670.88;10544634;28;20496;-58
2021/12/13 03:42:16;;;;;;;68.50;35.95;;;;;;;9.11;100.00;102671.69;10543547;28;20393;-57
2021/12/13 03:47:36;;;;;;;63.78;34.72;;;;;;;9.16;100.00;102671.56;10544431;28;20044;-59
2021/12/13 03:52:42;;;;;;;47.83;29.20;;;;;;;9.03;100.00;102676.22;10543605;28;20044;-59
2021/12/13 03:57:50;;;;;;;43.65;27.77;;;;;;;8.96;100.00;102676.38;10543901;28;20048;-58
2021/12/13 04:02:54;;;;;;;65.15;32.90;;;;;;;8.79;100.00;102674.94;10543173;28;20048;-59
2021/12/13 04:08:03;;;;;;;61.58;33.63;;;;;;;8.98;100.00;102672.84;10542870;28;20427;-57
2021/12/13 04:13:12;;;;;;;51.50;29.17;;;;;;;9.05;100.00;102678.81;10543164;28;20048;-57
2021/12/13 04:19:06;;;;;;;56.45;30.40;;;;;;;8.90;100.00;102678.22;10541551;28;20055;-59
2021/12/13 04:24:07;;;;;;;58.20;32.42;;;;;;;8.96;100.00;102681.59;10542129;28;20054;-57
2021/12/13 04:29:30;;;;;;;71.55;35.63;;;;;;;8.90;100.00;102683.44;10541481;28;20066;-58
2021/12/13 04:34:38;;;;;;;40.55;27.25;;;;;;;8.98;100.00;102704.19;10541705;28;20047;-58
2021/12/13 04:39:56;;;;;;;61.90;33.75;;;;;;;8.79;100.00;102688.00;10540993;28;20044;-58
2021/12/13 04:45:07;;;;;;;;;;;;;;;9.01;100.00;102674.53;10541897;28;20056;-58
2021/12/13 04:50:21;;;;;;;51.70;30.25;;;;;;;8.89;100.00;102679.13;10541273;28;20390;-58
2021/12/13 04:55:32;;;;;;;67.53;35.53;;;;;;;8.75;100.00;102673.31;10540285;28;20040;-58
2021/12/13 05:00:40;;;;;;;65.53;34.03;;;;;;;8.79;100.00;102685.41;10540208;28;20044;-58
2021/12/13 05:05:42;;;;;;;73.63;37.80;;;;;;;8.68;100.00;102677.78;10539661;28;20076;-58
2021/12/13 05:10:48;;;;;;;84.28;37.13;;;;;;;8.72;100.00;102689.03;10540427;28;20539;-57
2021/12/13 05:15:59;;;;;;;61.45;33.28;;;;;;;8.60;100.00;102677.06;10540728;28;20056;-57
2021/12/13 05:21:09;;;;;;;51.15;30.25;;;;;;;8.71;100.00;102684.72;10540947;28;20101;-57
2021/12/13 05:26:11;;;;;;;69.70;33.25;;;;;;;8.64;100.00;102689.19;10540400;28;20066;-59
2021/12/13 05:31:23;;;;;;;57.47;32.22;;;;;;;8.63;100.00;102687.47;10539421;28;20054;-58
2021/12/13 05:36:30;;;;;;;56.22;32.63;;;;;;;8.73;100.00;102683.78;10539937;28;20047;-58
2021/12/13 05:41:32;;;;;;;59.38;30.05;;;;;;;8.65;100.00;102716.16;10539886;28;20056;-58
2021/12/13 05:46:47;;;;;;;50.75;29.70;;;;;;;8.81;100.00;102724.56;10540124;28;20059;-58
2021/12/13 05:51:54;;;;;;;49.45;27.80;;;;;;;8.63;100.00;102715.34;10540104;28;20620;-59
2021/12/13 05:57:14;;;;;;;59.50;30.48;;;;;;;8.52;100.00;102715.50;10539424;28;20048;-58
2021/12/13 06:02:31;;;;;;;66.45;32.42;;;;;;;8.51;100.00;102722.50;10539310;28;20055;-58
2021/12/13 06:07:39;;;;;;;48.95;27.52;;;;;;;8.63;100.00;102738.84;10539247;28;20551;-59
2021/12/13 06:12:52;;;;;;;51.58;27.70;;;;;;;8.62;100.00;102735.34;10539020;28;20058;-59
2021/12/13 06:18:04;;;;;;;50.72;28.08;;;;;;;8.44;100.00;102720.88;10539281;28;20045;-59
2021/12/13 06:23:17;;;;;;;45.30;25.48;;;;;;;8.61;100.00;102725.81;10539084;28;20055;-58
2021/12/13 06:28:23;;;;;;;46.50;27.30;;;;;;;8.51;100.00;102732.09;10539015;28;20048;-58
2021/12/13 06:33:26;;;;;;;59.88;27.80;;;;;;;8.35;100.00;102736.66;10537667;28;20048;-58
2021/12/13 06:38:45;;;;;;;44.80;24.95;;;;;;;8.44;100.00;102730.44;10538575;28;20408;-59
2021/12/13 06:43:52;;;;;;;48.45;26.90;;;;;;;8.49;100.00;102733.84;10538743;28;20048;-59
2021/12/13 06:49:09;;;;;;;41.70;25.15;;;;;;;8.46;100.00;102739.13;10539086;28;20051;-59
2021/12/13 06:54:26;;;;;;;45.58;24.92;;;;;;;8.33;100.00;102749.72;10546053;28;20044;-58
2021/12/13 06:59:30;;;;;;;43.40;23.85;;;;;;;8.46;100.00;102749.56;10546071;28;20051;-59
2021/12/13 07:04:54;;;;;;;51.47;26.98;;;;;;;8.51;100.00;102760.81;10545378;28;20044;-58
2021/12/13 07:10:00;;;;;;;46.45;25.08;;;;;;;8.29;100.00;102757.66;10546169;28;20060;-58
2021/12/13 07:15:04;;;;;;;45.70;24.60;;;;;;;8.42;100.00;102764.38;10545237;28;20040;-58
2021/12/13 07:20:16;;;;;;;46.25;25.38;;;;;;;8.43;100.00;102771.34;10526956;28;20055;-58
2021/12/13 07:25:18;;;;;;;;;;;;;;;8.35;100.00;102763.66;10545326;28;20420;-58
2021/12/13 07:30:24;;;;;;;47.83;24.67;;;;;;;8.22;100.00;102762.13;10544645;28;19927;-59
2021/12/13 07:35:32;;;;;;;40.92;23.45;;;;;;;8.24;100.00;102769.88;10544559;28;20077;-59
2021/12/13 07:40:42;;;;;;;35.78;20.45;;;;;;;8.32;100.00;102773.25;10544434;28;20164;-59
2021/12/13 07:46:01;;;;;;;44.70;23.40;;;;;;;8.26;100.00;102773.38;10544165;28;20044;-59
2021/12/13 07:51:15;;;;;;;37.80;21.85;;;;;;;8.23;100.00;102771.66;10543881;28;20056;-58
2021/12/13 07:56:28;;;;;;;43.83;23.55;;;;;;;8.38;100.00;102792.28;10543865;28;20047;-59
2021/12/13 08:01:35;;;;;;;42.38;22.73;;;;;;;8.28;100.00;102790.72;10543133;28;20175;-58
2021/12/13 08:06:47;;;;;;;40.67;21.05;;;;;;;8.26;100.00;102807.28;10542909;28;20446;-59
2021/12/13 08:12:13;;;;;;;34.75;20.27;;;;;;;8.14;100.00;102795.28;10542658;28;20408;-58
2021/12/13 08:17:31;;;;;;;30.67;19.23;;;;;;;8.42;100.00;102798.31;10542941;28;20048;-59
2021/12/13 08:22:33;;;;;;;39.00;22.40;;;;;;;8.41;100.00;102800.97;10542660;28;20048;-59
2021/12/13 08:27:41;;;;;;;37.95;22.45;;;;;;;8.25;100.00;102806.41;10542277;28;20480;-59
2021/12/13 08:32:57;;;;;;;37.03;21.27;;;;;;;8.25;100.00;102795.13;10542398;28;20126;-58
2021/12/13 08:38:02;;;;;;;32.50;18.60;;;;;;;8.43;100.00;102800.06;10542002;28;20054;-59
2021/12/13 08:43:09;;;;;;;39.83;17.95;;;;;;;8.41;100.00;102801.81;10541444;28;20553;-60
2021/12/13 08:48:16;;;;;;;35.25;19.55;;;;;;;8.49;100.00;102814.75;10542024;28;20052;-58
2021/12/13 08:53:25;;;;;;;27.90;17.73;;;;;;;8.54;100.00;102799.91;10539879;28;20056;-58
2021/12/13 08:58:28;;;;;;;33.55;18.25;;;;;;;8.55;100.00;102812.06;10541447;28;20040;-58
2021/12/13 09:03:33;;;;;;;27.58;16.17;;;;;;;8.34;100.00;102800.22;10540821;28;20044;-58
2021/12/13 09:09:11;;;;;;;28.00;17.05;;;;;;;8.54;100.00;102824.25;10540745;28;20044;-57
2021/12/13 09:14:21;;;;;;;28.48;16.95;;;;;;;8.33;100.00;102811.53;10539932;28;20052;-58
2021/12/13 09:19:30;;;;;;;23.52;15.68;;;;;;;8.29;100.00;102818.53;10539129;28;20487;-58
2021/12/13 09:24:39;;;;;;;24.58;14.88;;;;;;;8.49;100.00;102836.53;10540217;28;20127;-56
2021/12/13 09:29:58;;;;;;;27.30;16.17;;;;;;;8.38;100.00;102828.81;10540132;28;20048;-57
2021/12/13 09:35:19;;;;;;;26.15;16.08;;;;;;;8.43;100.00;102836.63;10540304;28;20051;-58
2021/12/13 09:40:37;;;;;;;24.55;15.82;;;;;;;8.55;100.00;102852.06;10540196;28;20052;-59
2021/12/13 09:45:46;;;;;;;23.13;15.27;;;;;;;8.53;100.00;102855.63;10539683;28;20052;-57
2021/12/13 09:50:52;;;;;;;21.02;13.57;;;;;;;8.45;100.00;102847.03;10538718;28;20098;-57
2021/12/13 09:55:55;;;;;;;19.15;13.93;;;;;;;8.59;100.00;102858.13;10540338;28;20491;-58
2021/12/13 10:01:06;;;;;;;20.35;14.00;;;;;;;8.40;100.00;102862.72;10539298;28;20051;-57
2021/12/13 10:06:10;;;;;;;26.15;14.43;;;;;;;8.57;100.00;102864.25;10539421;28;20040;-57
2021/12/13 10:11:27;;;;;;;20.70;13.90;;;;;;;8.63;100.00;102861.56;10539125;28;20055;-56
2021/12/13 10:16:34;;;;;;;15.50;11.27;;;;;;;8.70;100.00;102868.41;10539216;28;20048;-58
2021/12/13 10:21:40;;;;;;;18.13;11.73;;;;;;;8.54;100.00;102866.03;10539596;28;20054;-58
2021/12/13 10:26:43;;;;;;;18.35;11.75;;;;;;;8.62;100.00;102855.44;10543157;28;20392;-56
2021/12/13 10:32:13;;;;;;;15.88;11.15;;;;;;;8.78;100.00;102850.00;10547278;28;20052;-57
2021/12/13 10:37:28;;;;;;;14.60;11.00;;;;;;;8.88;100.00;102849.81;10546588;28;20050;-57
2021/12/13 10:42:35;;;;;;;18.65;12.50;;;;;;;8.66;100.00;102835.41;10545948;28;20401;-58
2021/12/13 10:47:40;;;;;;;16.83;11.73;;;;;;;8.72;100.00;102845.72;10546588;28;20044;-57
2021/12/13 10:52:48;;;;;;;16.05;11.13;;;;;;;8.61;100.00;102842.41;10545951;28;20050;-57
2021/12/13 10:57:50;;;;;;;13.95;10.88;;;;;;;8.83;100.00;102863.84;10546072;28;20055;-58
2021/12/13 11:02:57;;;;;;;17.75;11.48;;;;;;;8.81;100.00;102840.34;10545894;28;20046;-58
2021/12/13 11:08:00;;;;;;;15.40;10.93;;;;;;;8.71;100.00;102844.88;10544362;28;20507;-58
2021/12/13 11:13:03;;;;;;;14.13;9.88;;;;;;;8.86;100.00;102840.25;10545485;28;20044;-57
2021/12/13 11:18:11;;;;;;;18.38;11.27;;;;;;;8.58;100.00;102832.91;10545784;28;20081;-57
2021/12/13 11:23:16;;;;;;;17.73;11.10;;;;;;;8.71;100.00;102820.50;10545017;28;20047;-57
2021/12/13 11:28:19;;;;;;;11.45;9.10;;;;;;;8.86;100.00;102838.53;10545201;28;20048;-58
2021/12/13 11:33:58;;;;;;;19.00;11.43;;;;;;;8.98;100.00;102847.00;10543342;28;20047;-58
2021/12/13 11:39:34;;;;;;;13.30;9.70;;;;;;;8.81;100.00;102834.25;10544111;28;20055;-58
2021/12/13 11:44:49;;;;;;;15.85;8.77;;;;;;;9.06;100.00;102842.50;10544290;28;20059;-59
2021/12/13 11:50:09;;;;;;;10.95;9.45;;;;;;;8.93;100.00;102840.13;10543806;28;20500;-57
2021/12/13 11:55:42;;;;;;;12.75;8.40;;;;;;;8.78;100.00;102832.56;10544120;28;20048;-57
2021/12/13 12:01:00;;;;;;;14.25;10.10;;;;;;;8.73;100.00;102826.56;10542930;28;20392;-57
2021/12/13 12:06:33;;;;;;;13.23;9.20;;;;;;;8.72;100.00;102806.56;10543626;28;20090;-58
2021/12/13 12:12:02;;;;;;;13.82;9.10;;;;;;;8.92;100.00;102825.34;10542545;28;20408;-57
2021/12/13 12:17:06;;;;;;;13.68;8.98;;;;;;;8.65;100.00;102804.94;10543030;28;20066;-57
2021/12/13 12:22:16;;;;;;;9.05;8.13;;;;;;;8.77;100.00;102798.63;10543029;28;20047;-57
2021/12/13 12:27:21;;;;;;;13.52;8.75;;;;;;;8.79;100.00;102799.47;10542355;28;20441;-57
2021/12/13 12:32:28;;;;;;;10.13;8.35;;;;;;;9.15;100.00;102811.00;10541396;28;20063;-59
2021/12/13 12:37:56;;;;;;;7.93;6.82;;;;;;;8.94;100.00;102814.84;10541078;28;20043;-56
2021/12/13 12:43:03;;;;;;;10.88;7.43;;;;;;;8.96;100.00;102827.91;10541846;28;20056;-58
2021/12/13 12:48:10;;;;;;;8.50;6.82;;;;;;;8.93;100.00;102800.09;10539769;28;20055;-57
2021/12/13 12:53:37;;;;;;;9.25;7.90;;;;;;;9.04;100.00;102808.56;10541810;28;20051;-59
2021/12/13 12:58:47;;;;;;;9.18;6.85;;;;;;;8.98;100.00;102813.03;10540975;28;20496;-58
2021/12/13 13:03:51;;;;;;;;;;;;;;;9.20;100.00;102688.94;10541407;28;20086;-58
2021/12/13 13:08:55;;;;;;;8.13;6.90;;;;;;;9.01;100.00;102745.94;10541108;28;19920;-58
2021/12/13 13:14:22;;;;;;;8.18;6.88;;;;;;;9.02;100.00;103026.38;10540534;28;20051;-57
2021/12/13 13:19:40;;;;;;;7.35;5.50;;;;;;;9.00;100.00;103049.06;10531482;28;20044;-57
2021/12/13 13:24:46;;;;;;;7.40;6.20;;;;;;;9.01;100.00;103033.38;10540677;28;20063;-59
2021/12/13 13:29:49;;;;;;;7.55;5.40;;;;;;;9.09;100.00;103014.94;10540122;28;20415;-59
2021/12/13 13:34:56;;;;;;;8.38;6.45;;;;;;;8.99;100.00;103013.34;10540141;28;20040;-58
2021/12/13 13:40:03;;;;;;;6.50;5.40;;;;;;;8.90;100.00;103010.00;10540726;28;20052;-58
2021/12/13 13:45:33;;;;;;;8.85;5.80;;;;;;;8.85;100.00;102995.28;10540865;28;20070;-59
2021/12/13 13:50:49;;;;;;;6.53;5.32;;;;;;;8.93;100.00;102996.03;10539804;28;20051;-58
2021/12/13 13:56:07;;;;;;;6.18;5.57;;;;;;;8.86;100.00;102969.13;10539514;28;20492;-59
2021/12/13 14:01:16;;;;;;;5.30;4.80;;;;;;;9.09;100.00;102949.59;10544763;28;20522;-59
2021/12/13 14:06:37;;;;;;;6.43;5.82;;;;;;;8.72;100.00;102942.34;10548625;28;20063;-58
2021/12/13 14:11:54;;;;;;;7.43;5.50;;;;;;;8.71;100.00;102907.56;10547874;28;20484;-59
2021/12/13 14:16:58;;;;;;;6.65;5.47;;;;;;;8.61;100.00;102915.53;10548360;28;20040;-59
2021/12/13 14:22:01;;;;;;;7.25;6.07;;;;;;;8.66;100.00;102921.56;10547392;28;20412;-58
2021/12/13 14:27:22;;;;;;;6.93;5.63;;;;;;;8.64;100.00;102939.00;10548007;28;20044;-59
2021/12/13 14:32:24;;;;;;;7.20;5.68;;;;;;;8.62;100.00;102936.41;10547650;28;20085;-58
2021/12/13 14:37:33;;;;;;;8.43;5.30;;;;;;;8.61;100.00;102932.09;10545628;28;20488;-58
2021/12/13 14:42:37;;;;;;;6.03;5.28;;;;;;;8.35;100.00;102919.38;10546450;28;20044;-59
2021/12/13 14:47:51;;;;;;;6.82;6.10;;;;;;;8.60;100.00;102919.03;10546558;28;20074;-59
2021/12/13 14:53:09;;;;;;;7.20;5.40;;;;;;;8.49;100.00;102934.84;10546667;28;20052;-58
2021/12/13 14:58:14;;;;;;;10.50;5.65;;;;;;;8.42;100.00;102941.03;10545797;28;20488;-59
2021/12/13 15:03:20;;;;;;;9.23;5.70;;;;;;;8.48;100.00;102928.78;10544572;28;20051;-59
2021/12/13 15:08:25;;;;;;;8.00;5.43;;;;;;;8.60;100.00;102940.78;10545035;28;20044;-59
2021/12/13 15:13:28;;;;;;;5.75;5.07;;;;;;;8.54;100.00;102961.78;10544226;28;20044;-59
2021/12/13 15:18:39;;;;;;;8.32;6.40;;;;;;;8.48;100.00;102939.22;10545202;28;20044;-58
2021/12/13 15:23:42;;;;;;;;;;;;;;;8.41;100.00;102942.78;10545533;28;20052;-58
2021/12/13 15:28:50;;;;;;;6.15;5.43;;;;;;;8.36;100.00;102940.22;10545001;28;19920;-59
2021/12/13 15:33:55;;;;;;;9.43;5.93;;;;;;;8.30;100.00;102942.06;10544510;28;20059;-59
2021/12/13 15:39:07;;;;;;;8.30;5.05;;;;;;;8.49;100.00;102940.06;10545075;28;20044;-59
2021/12/13 15:44:11;;;;;;;8.85;5.50;;;;;;;8.21;100.00;102940.44;10544366;28;20403;-58
2021/12/13 15:49:36;;;;;;;6.03;5.43;;;;;;;8.26;100.00;102946.47;10543990;28;20056;-58
2021/12/13 15:54:47;;;;;;;9.95;6.40;;;;;;;8.10;100.00;102952.75;10544035;28;20075;-59
2021/12/13 15:59:53;;;;;;;12.80;5.57;;;;;;;8.43;100.00;102968.91;10543593;28;20106;-58
2021/12/13 16:05:05;;;;;;;10.73;7.43;;;;;;;8.42;100.00;102960.16;10543480;28;20044;-60
2021/12/13 16:10:12;;;;;;;8.30;6.05;;;;;;;8.36;100.00;102966.31;10543588;28;20044;-58
2021/12/13 16:15:25;;;;;;;7.18;6.07;;;;;;;8.26;100.00;102962.13;10542834;28;20488;-57
2021/12/13 16:20:40;;;;;;;8.32;5.43;;;;;;;8.26;100.00;102945.59;10542867;28;20044;-58
2021/12/13 16:25:49;;;;;;;6.95;5.72;;;;;;;8.23;100.00;102943.03;10542579;28;20044;-58
2021/12/13 16:31:10;;;;;;;6.13;5.00;;;;;;;8.20;100.00;102933.47;10541950;28;20492;-58
2021/12/13 16:36:29;;;;;;;5.45;4.95;;;;;;;8.31;100.00;102957.69;10542036;28;20554;-59
2021/12/13 16:41:31;;;;;;;7.10;5.53;;;;;;;8.09;100.00;102943.22;10541881;28;20048;-58
2021/12/13 16:46:35;;;;;;;8.90;5.03;;;;;;;8.22;100.00;102936.06;10541976;28;20056;-58
2021/12/13 16:51:46;;;;;;;9.93;5.47;;;;;;;8.10;100.00;102932.75;10541315;28;20415;-59
2021/12/13 16:56:50;;;;;;;5.77;4.70;;;;;;;8.42;100.00;102952.31;10541922;28;20054;-59
2021/12/13 17:01:55;;;;;;;6.63;5.78;;;;;;;8.00;100.00;102944.16;10540973;28;20313;-58
2021/12/13 17:07:10;;;;;;;9.10;4.95;;;;;;;8.17;100.00;102938.78;10540973;28;20113;-59
2021/12/13 17:12:13;;;;;;;5.88;5.20;;;;;;;8.21;100.00;102947.41;10540453;28;20056;-58
2021/12/13 17:17:16;;;;;;;6.43;5.38;;;;;;;7.94;100.00;102929.47;10540726;28;20054;-59
2021/12/13 17:22:22;;;;;;;6.75;5.43;;;;;;;8.14;100.00;102937.03;10540181;28;20545;-58
2021/12/13 17:27:28;;;;;;;8.15;5.97;;;;;;;8.06;100.00;102957.16;10540475;28;20055;-57
2021/12/13 17:32:36;;;;;;;5.35;4.30;;;;;;;8.15;100.00;102953.56;10540111;28;20503;-58
2021/12/13 17:37:58;;;;;;;8.60;5.05;;;;;;;8.07;100.00;102952.78;10539781;28;20052;-59
2021/12/13 17:43:03;;;;;;;9.88;4.85;;;;;;;8.13;100.00;102971.84;10539559;28;20040;-58
2021/12/13 17:48:09;;;;;;;6.18;5.07;;;;;;;8.00;100.00;102949.38;10540045;28;20086;-59
2021/12/13 17:53:17;;;;;;;6.22;4.75;;;;;;;7.98;100.00;102938.13;10539061;28;20058;-59
2021/12/13 17:58:28;;;;;;;7.82;4.50;;;;;;;8.06;100.00;102938.03;10539670;28;20048;-58
2021/12/13 18:03:36;;;;;;;7.95;4.70;;;;;;;8.19;100.00;103232.72;10539499;28;20052;-59
2021/12/13 18:09:22;;;;;;;5.93;4.65;;;;;;;7.96;100.00;103037.25;10539268;28;20460;-58
2021/12/13 18:14:40;;;;;;;8.23;4.32;;;;;;;8.16;100.00;103034.44;10539325;28;20048;-57
2021/12/13 18:19:50;;;;;;;5.97;4.78;;;;;;;7.96;100.00;103029.44;10539151;28;20048;-59
2021/12/13 18:24:53;;;;;;;7.47;5.03;;;;;;;7.98;100.00;103037.25;10539291;28;20501;-59
2021/12/13 18:29:59;;;;;;;4.82;4.32;;;;;;;8.25;100.00;103066.53;10539066;28;20055;-57
2021/12/13 18:35:22;;;;;;;4.93;4.18;;;;;;;8.21;100.00;103050.03;10539079;28;20054;-57
2021/12/13 18:40:33;;;;;;;8.15;4.00;;;;;;;8.25;100.00;103030.00;10539420;28;20048;-58
2021/12/13 18:45:38;;;;;;;7.65;4.78;;;;;;;7.87;100.00;103021.72;10539680;28;20052;-58
2021/12/13 18:50:48;;;;;;;7.38;4.90;;;;;;;8.06;100.00;103014.56;10546137;28;20059;-60
2021/12/13 18:55:53;;;;;;;8.90;4.57;;;;;;;8.07;100.00;102994.53;10546365;28;20044;-58
2021/12/13 19:01:23;;;;;;;6.32;4.78;;;;;;;7.85;100.00;102997.41;10545794;28;20044;-58
2021/12/13 19:06:41;;;;;;;5.00;4.50;;;;;;;7.83;100.00;103004.34;10542386;28;20044;-59
2021/12/13 19:12:01;;;;;;;7.60;5.55;;;;;;;8.07;100.00;102999.75;10545635;28;20052;-59
2021/12/13 19:17:16;;;;;;;6.70;3.70;;;;;;;8.08;100.00;103002.34;10546399;28;20059;-62
2021/12/13 19:22:28;;;;;;;6.18;4.30;;;;;;;7.97;100.00;102989.44;10543944;28;20040;-60
2021/12/13 19:27:46;;;;;;;5.28;4.40;;;;;;;7.92;100.00;103001.66;10545243;28;20066;-60
2021/12/13 19:33:18;;;;;;;4.40;4.00;;;;;;;7.93;100.00;102995.56;10545212;28;20052;-59
2021/12/13 19:38:30;;;;;;;4.97;3.90;;;;;;;7.90;100.00;103000.81;10544729;28;20043;-58
2021/12/13 19:43:58;;;;;;;5.05;3.97;;;;;;;7.68;100.00;102981.91;10543675;28;20492;-58
2021/12/13 19:49:06;;;;;;;4.60;3.92;;;;;;;7.68;100.00;102987.13;10544001;28;20048;-58
2021/12/13 19:54:12;;;;;;;6.13;4.47;;;;;;;7.78;100.00;102990.50;10543791;28;20051;-59
2021/12/13 19:59:25;;;;;;;7.85;4.40;;;;;;;7.66;100.00;102983.66;10543159;28;20044;-59
2021/12/13 20:04:29;;;;;;;4.70;4.18;;;;;;;7.70;100.00;102997.53;10525892;28;20054;-58
2021/12/13 20:09:46;;;;;;;4.88;4.07;;;;;;;8.03;100.00;103025.00;10543141;28;20057;-58
2021/12/13 20:14:56;;;;;;;4.78;3.83;;;;;;;7.81;100.00;103014.81;10543119;28;20055;-57
2021/12/13 20:20:32;;;;;;;6.60;4.75;;;;;;;7.88;100.00;103001.72;10541739;28;20075;-58
2021/12/13 20:25:43;;;;;;;6.07;4.90;;;;;;;7.74;100.00;103004.47;10532017;28;20480;-57
2021/12/13 20:31:06;;;;;;;6.67;4.90;;;;;;;7.90;100.00;103028.63;10542520;28;20044;-58
2021/12/13 20:36:14;;;;;;;6.20;4.45;;;;;;;7.87;100.00;103007.78;10542772;28;20044;-58
2021/12/13 20:41:38;;;;;;;8.07;5.40;;;;;;;7.85;100.00;103006.94;10541954;28;20063;-59
2021/12/13 20:46:46;;;;;;;5.45;4.28;;;;;;;7.87;100.00;103008.69;10542015;28;20066;-59
2021/12/13 20:51:53;;;;;;;7.57;5.03;;;;;;;7.68;100.00;103005.38;10541479;28;20059;-58
2021/12/13 20:56:59;;;;;;;7.50;5.05;;;;;;;7.81;100.00;102999.16;10540681;28;20050;-58
2021/12/13 21:02:08;;;;;;;9.13;6.45;;;;;;;7.69;100.00;102980.19;10541243;28;20048;-59
2021/12/13 21:07:42;;;;;;;8.25;5.30;;;;;;;7.45;100.00;102971.72;10541653;28;20093;-58
2021/12/13 21:12:50;;;;;;;8.30;5.78;;;;;;;7.67;100.00;102968.91;10524829;28;20058;-59
2021/12/13 21:17:59;;;;;;;6.60;5.55;;;;;;;7.69;100.00;102973.22;10540904;28;20040;-58
2021/12/13 21:23:08;;;;;;;8.75;5.50;;;;;;;7.76;100.00;102977.47;10540235;28;20050;-58
2021/12/13 21:28:24;;;;;;;7.05;4.88;;;;;;;7.68;100.00;102968.03;10540925;28;20093;-59
2021/12/13 21:33:31;;;;;;;10.52;5.72;;;;;;;7.30;100.00;102949.28;10540199;28;20055;-59
2021/12/13 21:44:02;;;;;;;12.05;6.03;;;;;;;7.53;100.00;102969.91;10539797;28;20052;-59
2021/12/13 21:49:05;;;;;;;9.00;5.40;;;;;;;7.73;100.00;102976.66;10539721;28;20040;-58
2021/12/13 21:54:14;;;;;;;10.93;6.60;;;;;;;7.64;100.00;102982.84;10539471;28;20411;-58
2021/12/13 21:59:25;;;;;;;9.10;6.47;;;;;;;7.78;100.00;102993.13;10539862;28;20403;-58
2021/12/13 22:04:51;;;;;;;6.70;6.07;;;;;;;7.60;100.00;102987.22;10539485;28;20051;-57
2021/12/13 22:10:15;;;;;;;11.65;5.95;;;;;;;7.54;100.00;102981.19;10529281;28;20060;-57
2021/12/13 22:15:20;;;;;;;11.88;7.55;;;;;;;7.68;100.00;102986.28;10539106;28;20044;-57
2021/12/13 22:20:37;;;;;;;9.68;7.03;;;;;;;7.85;100.00;102999.13;10541374;28;20393;-58
2021/12/13 22:25:46;;;;;;;9.85;7.35;;;;;;;7.66;100.00;102996.72;10547547;28;20044;-57
2021/12/13 22:30:57;;;;;;;11.60;8.43;;;;;;;7.69;100.00;102998.44;10547430;28;20048;-57
2021/12/13 22:36:02;;;;;;;8.00;6.80;;;;;;;7.67;100.00;103019.31;10547027;28;20044;-58
2021/12/13 22:41:20;;;;;;;14.27;8.02;;;;;;;7.57;100.00;103015.06;10546890;28;20067;-58
2021/12/13 22:46:34;;;;;;;10.90;8.77;;;;;;;7.51;100.00;103010.75;10546224;28;20043;-58
2021/12/13 22:51:53;;;;;;;11.15;7.85;;;;;;;7.58;100.00;103011.56;10546524;28;20066;-59
2021/12/13 22:56:57;;;;;;;12.80;8.43;;;;;;;7.77;100.00;103012.25;10546162;28;20391;-58
2021/12/13 23:02:10;;;;;;;8.90;7.35;;;;;;;7.61;100.00;103021.97;10544695;28;20051;-57
2021/12/13 23:07:15;;;;;;;13.35;9.85;;;;;;;7.37;100.00;103002.22;10545849;28;20475;-58
2021/12/13 23:17:49;;;;;;;14.10;11.15;;;;;;;7.40;100.00;103059.53;10545475;28;20055;-58
2021/12/13 23:22:52;;;;;;;19.15;11.90;;;;;;;7.20;100.00;102991.94;10545339;28;20063;-58
2021/12/13 23:27:55;;;;;;;14.52;11.60;;;;;;;7.53;100.00;102987.28;10544956;28;20511;-57
2021/12/13 23:32:59;;;;;;;16.02;11.02;;;;;;;7.59;100.00;102984.63;10543991;28;20048;-59
2021/12/13 23:38:07;;;;;;;16.60;11.13;;;;;;;7.50;100.00;102985.59;10544958;28;20051;-57
2021/12/13 23:48:37;;;;;;;15.80;10.82;;;;;;;7.22;100.00;102954.53;10544262;28;20052;-58
2021/12/13 23:53:41;;;;;;;13.40;10.85;;;;;;;7.47;100.00;102954.31;10543885;28;20052;-58